Shelby County Airport Alabaster US
ICAO: KEET
IATA: EET
Category: Medium
Scheduled Services: No

Elevation: 586 ft
TransAlt. 18000 ft.

Airport Communications:
BIRMINGHAM APP/DEP:123.8
ASOS:134.325
CTAF/UNICOM:122.7

KEET Zoom In..

Runways:

(A) RW 16 length 5000 ft width 75 ft
---- / hdg 160

(B) RW 34 length 5000 ft width 75 ft
---- / hdg 340

Location; KEET
Day. 16 / Time. 17.53 Zulu
* Altimeter: 30.09
* Temperature: 23° c. 73.4°f.
* Wind from: 350° Speed 07 kn.
Dewpoint: 22° c.
Visibility: 5 Statute Miles.
Clouds: Few 900 ft.
Clouds: Scattered 6000 ft.
Clouds: Broken 12000 ft.
Conditions: Light Rain.Conditions: Mist.

KEET 161753Z AUTO 35007KT 5SM -RA BR FEW009 SCT060 BKN120 23/22 A3009 RMK AO2 LTG DSNT W-NE RAB08 SLP182 P0004 60004 T02330222 10272 20228 58000


Wind From 350°
Speed 07 kn.

 
 
jpsmedia.com for Web Design worldairports.se 2018   terms of use